createdAt,value
2022-11-09T00:01:30.562Z,101478.02
2022-11-09T00:04:04.448Z,101480.55
2022-11-09T00:06:37.352Z,101485.28
2022-11-09T00:09:10.870Z,101483.79
2022-11-09T00:11:43.141Z,101487.10
2022-11-09T00:14:18.754Z,101485.16
2022-11-09T00:16:51.022Z,101487.33
2022-11-09T00:19:23.450Z,101483.35
2022-11-09T00:21:55.729Z,101485.05
2022-11-09T00:24:28.042Z,101485.05
2022-11-09T00:27:00.355Z,101486.27
2022-11-09T00:29:32.739Z,101482.36
2022-11-09T00:32:05.151Z,101482.70
2022-11-09T00:34:37.493Z,101485.14
2022-11-09T00:37:09.782Z,101481.47
2022-11-09T00:39:42.151Z,101479.66
2022-11-09T00:42:14.536Z,101485.52
2022-11-09T00:44:46.895Z,101486.20
2022-11-09T00:47:19.307Z,101485.33
2022-11-09T00:49:51.754Z,101488.68
2022-11-09T00:52:24.127Z,101487.62
2022-11-09T00:54:56.539Z,101490.23
2022-11-09T00:57:28.865Z,101489.65
2022-11-09T01:00:01.140Z,101487.61
2022-11-09T01:02:33.418Z,101490.36
2022-11-09T01:05:06.411Z,101493.09
2022-11-09T01:07:39.532Z,101498.71
2022-11-09T01:10:12.326Z,101498.30
2022-11-09T01:12:44.682Z,101495.64
2022-11-09T01:15:17.019Z,101495.44
2022-11-09T01:17:49.385Z,101500.83
2022-11-09T01:20:22.323Z,101498.85
2022-11-09T01:22:55.623Z,101493.78
2022-11-09T01:25:27.901Z,101495.20
2022-11-09T01:28:02.153Z,101492.84
2022-11-09T01:30:37.047Z,101494.49
2022-11-09T01:33:11.643Z,101497.88
2022-11-09T01:35:43.991Z,101498.36
2022-11-09T01:38:16.311Z,101501.34
2022-11-09T01:40:48.644Z,101499.61
2022-11-09T01:43:23.949Z,101499.05
2022-11-09T01:46:01.407Z,101497.77
2022-11-09T01:48:39.479Z,101495.62
2022-11-09T01:51:15.775Z,101494.27
2022-11-09T01:53:52.734Z,101491.55
2022-11-09T01:56:25.316Z,101493.90
2022-11-09T01:59:00.579Z,101493.17
2022-11-09T02:01:34.399Z,101499.76
2022-11-09T02:04:11.471Z,101496.04
2022-11-09T02:06:44.433Z,101496.35
2022-11-09T02:09:22.351Z,101493.71
2022-11-09T02:11:55.022Z,101493.13
2022-11-09T02:14:29.954Z,101491.00
2022-11-09T02:17:02.715Z,101491.55
2022-11-09T02:19:35.062Z,101493.70
2022-11-09T02:22:10.453Z,101495.66
2022-11-09T02:24:42.781Z,101495.80
2022-11-09T02:27:15.244Z,101494.86
2022-11-09T02:29:49.004Z,101495.56
2022-11-09T02:32:24.336Z,101493.63
2022-11-09T02:34:56.626Z,101492.20
2022-11-09T02:37:31.448Z,101492.27
2022-11-09T02:40:06.983Z,101491.05
2022-11-09T02:42:39.888Z,101486.98
2022-11-09T02:45:13.565Z,101483.50
2022-11-09T02:47:45.852Z,101489.04
2022-11-09T02:50:18.537Z,101484.45
2022-11-09T02:52:51.183Z,101485.06
2022-11-09T02:55:23.534Z,101488.02
2022-11-09T02:57:55.843Z,101485.30
2022-11-09T03:00:28.289Z,101479.91
2022-11-09T03:03:00.759Z,101477.73
2022-11-09T03:05:34.963Z,101480.42
2022-11-09T03:08:07.602Z,101479.29
2022-11-09T03:10:39.963Z,101479.34
2022-11-09T03:13:12.303Z,101485.52
2022-11-09T03:15:44.619Z,101490.50
2022-11-09T03:18:16.951Z,101487.16
2022-11-09T03:20:49.299Z,101493.88
2022-11-09T03:23:21.910Z,101491.79
2022-11-09T03:25:54.444Z,101489.98
2022-11-09T03:28:27.742Z,101487.86
2022-11-09T03:31:00.328Z,101481.88
2022-11-09T03:33:32.662Z,101485.61
2022-11-09T03:36:05.580Z,101488.75
2022-11-09T03:38:37.903Z,101494.02
2022-11-09T03:41:10.562Z,101495.34
2022-11-09T03:43:42.854Z,101498.55
2022-11-09T03:46:15.234Z,101503.88
2022-11-09T03:48:47.908Z,101501.54
2022-11-09T03:51:20.481Z,101502.20
2022-11-09T03:53:52.883Z,101500.98
2022-11-09T03:56:25.205Z,101501.72
2022-11-09T03:58:57.586Z,101508.41
2022-11-09T04:01:29.953Z,101508.98
2022-11-09T04:04:02.331Z,101508.91
2022-11-09T04:06:34.826Z,101509.93
2022-11-09T04:09:07.325Z,101509.80
2022-11-09T04:11:39.655Z,101509.05
2022-11-09T04:14:11.989Z,101506.41
2022-11-09T04:16:44.352Z,101510.00
2022-11-09T04:19:16.820Z,101506.46
2022-11-09T04:21:49.186Z,101509.23
2022-11-09T04:24:21.484Z,101510.86
2022-11-09T04:26:53.847Z,101510.30
2022-11-09T04:29:26.183Z,101512.23
2022-11-09T04:31:58.488Z,101510.94
2022-11-09T04:34:30.873Z,101511.78
2022-11-09T04:37:03.272Z,101515.92
2022-11-09T04:39:35.856Z,101519.88
2022-11-09T04:42:08.346Z,101520.84
2022-11-09T04:44:40.657Z,101520.60
2022-11-09T04:47:12.960Z,101523.82
2022-11-09T04:49:45.284Z,101525.91
2022-11-09T04:52:17.648Z,101523.11
2022-11-09T04:54:49.941Z,101527.83
2022-11-09T04:57:22.775Z,101527.83
2022-11-09T04:59:55.456Z,101529.25
2022-11-09T05:02:27.771Z,101529.63
2022-11-09T05:05:00.102Z,101532.33
2022-11-09T05:07:32.427Z,101535.17
2022-11-09T05:10:04.889Z,101541.88
2022-11-09T05:12:38.210Z,101543.58
2022-11-09T05:15:13.320Z,101546.25
2022-11-09T05:17:45.809Z,101551.38
2022-11-09T05:20:19.292Z,101549.61
2022-11-09T05:23:09.390Z,101554.07
2022-11-09T05:25:42.052Z,101554.82
2022-11-09T05:28:14.666Z,101557.42
2022-11-09T05:30:47.299Z,101556.55
2022-11-09T05:33:19.922Z,101560.86
2022-11-09T05:35:52.579Z,101562.61
2022-11-09T05:38:24.903Z,101566.70
2022-11-09T05:40:57.625Z,101572.41
2022-11-09T05:43:29.988Z,101573.65
2022-11-09T05:46:06.357Z,101578.85
2022-11-09T05:48:39.685Z,101583.50
2022-11-09T05:51:14.325Z,101582.59
2022-11-09T05:53:47.218Z,101584.16
2022-11-09T05:56:19.789Z,101588.31
2022-11-09T05:58:52.135Z,101592.69
2022-11-09T06:01:24.476Z,101595.59
2022-11-09T06:03:57.878Z,101595.11
2022-11-09T06:06:31.205Z,101601.94
2022-11-09T06:09:03.596Z,101603.81
2022-11-09T06:11:35.937Z,101598.61
2022-11-09T06:14:08.369Z,101596.96
2022-11-09T06:16:40.723Z,101607.30
2022-11-09T06:19:13.299Z,101605.42
2022-11-09T06:21:45.693Z,101600.68
2022-11-09T06:24:18.069Z,101604.02
2022-11-09T06:26:50.404Z,101606.41
2022-11-09T06:29:22.820Z,101605.57
2022-11-09T06:31:55.588Z,101606.02
2022-11-09T06:34:27.932Z,101602.52
2022-11-09T06:37:00.226Z,101598.41
2022-11-09T06:39:32.739Z,101596.66
2022-11-09T06:42:05.407Z,101599.40
2022-11-09T06:44:37.871Z,101594.69
2022-11-09T06:47:10.369Z,101596.97
2022-11-09T06:49:42.994Z,101601.48
2022-11-09T06:52:15.389Z,101602.06
2022-11-09T06:54:47.854Z,101603.27
2022-11-09T06:57:20.222Z,101600.78
2022-11-09T06:59:52.547Z,101599.76
2022-11-09T07:02:25.011Z,101599.46
2022-11-09T07:04:57.536Z,101603.59
2022-11-09T07:07:29.936Z,101607.77
2022-11-09T07:10:02.410Z,101602.71
2022-11-09T07:12:35.805Z,101601.40
2022-11-09T07:15:10.257Z,101601.00
2022-11-09T07:17:43.044Z,101600.59
2022-11-09T07:20:16.858Z,101600.88
2022-11-09T07:22:51.983Z,101603.77
2022-11-09T07:25:25.201Z,101603.16
2022-11-09T07:28:03.399Z,101602.86
2022-11-09T07:30:36.747Z,101603.39
2022-11-09T07:33:18.334Z,101604.92
2022-11-09T07:35:50.773Z,101609.14
2022-11-09T07:38:23.027Z,101604.34
2022-11-09T07:40:55.631Z,101602.31
2022-11-09T07:43:27.880Z,101603.45
2022-11-09T07:46:00.153Z,101601.00
2022-11-09T07:48:32.413Z,101601.46
2022-11-09T07:51:05.523Z,101601.44
2022-11-09T07:53:38.027Z,101598.84
2022-11-09T07:56:10.687Z,101598.90
2022-11-09T07:58:43.008Z,101597.20
2022-11-09T08:01:15.592Z,101597.86
2022-11-09T08:03:47.957Z,101600.23
2022-11-09T08:06:20.366Z,101600.95
2022-11-09T08:08:54.658Z,101600.08
2022-11-09T08:11:27.711Z,101603.93
2022-11-09T08:14:00.107Z,101601.13
2022-11-09T08:16:37.596Z,101601.77
2022-11-09T08:19:10.643Z,101602.13
2022-11-09T08:21:42.815Z,101603.05
2022-11-09T08:24:15.298Z,101608.19
2022-11-09T08:26:47.612Z,101605.05
2022-11-09T08:29:20.021Z,101603.15
2022-11-09T08:31:53.938Z,101608.83
2022-11-09T08:34:26.107Z,101605.71
2022-11-09T08:37:00.486Z,101606.13
2022-11-09T08:39:32.606Z,101597.30
2022-11-09T08:42:04.918Z,101598.58
2022-11-09T08:44:37.135Z,101598.96
2022-11-09T08:47:09.974Z,101596.79
2022-11-09T08:49:44.031Z,101595.64
2022-11-09T08:52:17.098Z,101599.91
2022-11-09T08:54:49.384Z,101598.70
2022-11-09T08:57:22.279Z,101600.33
2022-11-09T08:59:54.482Z,101595.57
2022-11-09T09:02:26.784Z,101593.98
2022-11-09T09:04:59.485Z,101592.42
2022-11-09T09:07:31.695Z,101592.41
2022-11-09T09:10:04.666Z,101592.70
2022-11-09T09:12:37.278Z,101590.09
2022-11-09T09:15:11.220Z,101590.79
2022-11-09T09:17:43.483Z,101585.44
2022-11-09T09:20:16.498Z,101586.62
2022-11-09T09:22:48.994Z,101580.07
2022-11-09T09:25:21.255Z,101584.30
2022-11-09T09:27:53.701Z,101580.81
2022-11-09T09:30:25.976Z,101578.89
2022-11-09T09:33:02.219Z,101575.25
2022-11-09T09:35:34.603Z,101572.52
2022-11-09T09:38:07.188Z,101571.15
2022-11-09T09:40:43.731Z,101570.05
2022-11-09T09:43:26.567Z,101567.44
2022-11-09T09:46:00.474Z,101567.77
2022-11-09T09:48:39.910Z,101565.14
2022-11-09T09:51:20.176Z,101564.77
2022-11-09T09:54:00.942Z,101563.77
2022-11-09T09:56:38.512Z,101560.82
2022-11-09T09:59:21.680Z,101558.19
2022-11-09T10:01:57.553Z,101549.96
2022-11-09T10:04:37.235Z,101550.02
2022-11-09T10:07:14.911Z,101551.40
2022-11-09T10:10:01.866Z,101547.73
2022-11-09T10:12:47.282Z,101545.02
2022-11-09T10:15:30.986Z,101542.46
2022-11-09T10:18:18.283Z,101537.64
2022-11-09T10:21:08.606Z,101538.99
2022-11-09T10:23:55.422Z,101538.82
2022-11-09T10:26:38.335Z,101534.30
2022-11-09T10:29:24.910Z,101531.33
2022-11-09T10:31:59.959Z,101529.67
2022-11-09T10:34:35.210Z,101532.68
2022-11-09T10:37:14.116Z,101527.15
2022-11-09T10:39:49.173Z,101522.54
2022-11-09T10:42:21.612Z,101525.77
2022-11-09T10:44:53.889Z,101521.80
2022-11-09T10:47:26.768Z,101522.02
2022-11-09T10:50:28.177Z,101518.70
2022-11-09T10:53:18.247Z,101512.95
2022-11-09T10:55:59.169Z,101513.00
2022-11-09T10:58:35.886Z,101509.65
2022-11-09T11:01:15.891Z,101508.80
2022-11-09T11:03:51.025Z,101504.90
2022-11-09T11:06:31.718Z,101501.42
2022-11-09T11:09:21.453Z,101497.00
2022-11-09T11:12:14.962Z,101493.86
2022-11-09T11:14:47.765Z,101491.65
2022-11-09T11:17:30.791Z,101485.04
2022-11-09T11:20:27.251Z,101483.64
2022-11-09T11:23:11.420Z,101482.59
2022-11-09T11:26:04.947Z,101475.14
2022-11-09T11:28:44.654Z,101474.38
2022-11-09T11:31:19.590Z,101473.73
2022-11-09T11:33:51.955Z,101474.05
2022-11-09T11:36:34.516Z,101470.08
2022-11-09T11:39:19.343Z,101464.77
2022-11-09T11:42:16.635Z,101464.46
2022-11-09T11:45:38.387Z,101461.80
2022-11-09T11:48:10.516Z,101461.98
2022-11-09T11:50:46.465Z,101458.32
2022-11-09T11:53:38.232Z,101457.52
2022-11-09T11:56:24.488Z,101455.71
2022-11-09T11:59:14.254Z,101457.62
2022-11-09T12:01:58.883Z,101454.86
2022-11-09T12:04:45.985Z,101455.17
2022-11-09T12:07:32.674Z,101451.16
2022-11-09T12:10:22.346Z,101450.64
2022-11-09T12:13:07.736Z,101451.76
2022-11-09T12:15:53.512Z,101449.27
2022-11-09T12:18:42.300Z,101447.46
2022-11-09T12:21:24.778Z,101446.45
2022-11-09T12:24:16.715Z,101444.33
2022-11-09T12:27:25.991Z,101445.22
2022-11-09T12:30:05.263Z,101444.73
2022-11-09T12:32:45.761Z,101440.17
2022-11-09T12:35:29.500Z,101439.19
2022-11-09T12:38:11.892Z,101435.46
2022-11-09T12:40:52.102Z,101434.70
2022-11-09T12:43:28.516Z,101435.67
2022-11-09T12:46:03.062Z,101437.31
2022-11-09T12:48:36.619Z,101435.87
2022-11-09T12:51:11.100Z,101436.09
2022-11-09T12:53:43.336Z,101433.21
2022-11-09T12:56:21.739Z,101434.72
2022-11-09T12:58:54.033Z,101437.81
2022-11-09T13:01:49.166Z,101436.39
2022-11-09T13:04:23.881Z,101436.60
2022-11-09T13:07:28.965Z,101435.46
2022-11-09T13:10:03.499Z,101433.55
2022-11-09T13:12:40.507Z,101431.23
2022-11-09T13:15:35.684Z,101430.56
2022-11-09T13:18:26.499Z,101424.61
2022-11-09T13:21:18.725Z,101428.24
2022-11-09T13:24:01.649Z,101426.17
2022-11-09T13:26:58.099Z,101427.34
2022-11-09T13:29:31.872Z,101425.98
2022-11-09T13:32:22.064Z,101426.26
2022-11-09T13:34:56.183Z,101428.69
2022-11-09T13:37:55.587Z,101431.57
2022-11-09T13:40:47.210Z,101430.19
2022-11-09T13:43:30.303Z,101434.41
2022-11-09T13:46:04.538Z,101431.89
2022-11-09T13:48:43.915Z,101438.78
2022-11-09T13:51:19.216Z,101433.58
2022-11-09T13:54:00.530Z,101431.11
2022-11-09T13:56:38.317Z,101431.91
2022-11-09T13:59:17.543Z,101433.42
2022-11-09T14:01:52.004Z,101433.80
2022-11-09T14:04:30.118Z,101433.39
2022-11-09T14:07:06.368Z,101432.61
2022-11-09T14:09:52.552Z,101432.38
2022-11-09T14:12:31.955Z,101431.73
2022-11-09T14:15:25.683Z,101428.61
2022-11-09T14:18:12.606Z,101425.61
2022-11-09T14:20:55.211Z,101423.61
2022-11-09T14:23:32.501Z,101420.91
2022-11-09T14:26:17.243Z,101420.92
2022-11-09T14:28:49.588Z,101420.52
2022-11-09T14:31:29.251Z,101419.09
2022-11-09T14:34:07.796Z,101421.06
2022-11-09T14:36:43.103Z,101420.56
2022-11-09T14:39:27.585Z,101418.70
2022-11-09T14:41:59.999Z,101421.55
2022-11-09T14:44:36.023Z,101420.27
2022-11-09T14:47:15.743Z,101420.46
2022-11-09T14:49:49.241Z,101420.45
2022-11-09T14:52:28.844Z,101418.14
2022-11-09T14:55:01.239Z,101420.80
2022-11-09T14:57:33.821Z,101419.66
2022-11-09T15:00:22.565Z,101418.52
2022-11-09T15:02:54.963Z,101421.02
2022-11-09T15:05:40.840Z,101420.75
2022-11-09T15:08:21.819Z,101425.38
2022-11-09T15:10:55.267Z,101420.35
2022-11-09T15:13:35.066Z,101417.80
2022-11-09T15:16:09.398Z,101418.12
2022-11-09T15:18:50.256Z,101419.67
2022-11-09T15:21:34.306Z,101420.27
2022-11-09T15:24:15.636Z,101419.09
2022-11-09T15:26:49.602Z,101423.05
2022-11-09T15:29:43.484Z,101420.20
2022-11-09T15:32:22.224Z,101419.69
2022-11-09T15:35:00.807Z,101418.35
2022-11-09T15:37:51.214Z,101421.90
2022-11-09T15:40:26.267Z,101426.05
2022-11-09T15:42:58.500Z,101430.14
2022-11-09T15:45:30.750Z,101430.39
2022-11-09T15:48:04.541Z,101434.42
2022-11-09T15:50:37.335Z,101430.77
2022-11-09T15:53:10.998Z,101430.55
2022-11-09T15:55:43.388Z,101431.84
2022-11-09T15:58:17.554Z,101437.53
2022-11-09T16:00:50.356Z,101439.53
2022-11-09T16:03:24.087Z,101440.73
2022-11-09T16:05:59.512Z,101448.19
2022-11-09T16:08:31.797Z,101447.21
2022-11-09T16:11:07.993Z,101445.14
2022-11-09T16:13:40.302Z,101450.34
2022-11-09T16:16:14.937Z,101452.77
2022-11-09T16:18:47.204Z,101453.27
2022-11-09T16:21:20.250Z,101455.08
2022-11-09T16:23:58.298Z,101455.86
2022-11-09T16:26:33.496Z,101448.09
2022-11-09T16:29:06.750Z,101457.55
2022-11-09T16:31:51.534Z,101457.84
2022-11-09T16:34:24.774Z,101462.44
2022-11-09T16:36:57.661Z,101462.27
2022-11-09T16:39:30.091Z,101461.87
2022-11-09T16:42:06.919Z,101465.44
2022-11-09T16:44:42.183Z,101465.65
2022-11-09T16:47:18.437Z,101467.42
2022-11-09T16:49:50.989Z,101467.48
2022-11-09T16:52:23.598Z,101466.16
2022-11-09T16:54:56.052Z,101466.41
2022-11-09T16:57:28.506Z,101468.95
2022-11-09T17:00:00.955Z,101466.89
2022-11-09T17:02:33.238Z,101466.64
2022-11-09T17:05:05.913Z,101463.82
2022-11-09T17:07:42.776Z,101462.84
2022-11-09T17:10:15.780Z,101465.10
2022-11-09T17:12:48.006Z,101466.45
2022-11-09T17:15:21.381Z,101466.38
2022-11-09T17:17:53.716Z,101468.49
2022-11-09T17:20:26.168Z,101464.70
2022-11-09T17:22:58.488Z,101467.25
2022-11-09T17:25:30.890Z,101469.79
2022-11-09T17:28:03.153Z,101467.98
2022-11-09T17:30:35.584Z,101466.95
2022-11-09T17:33:07.912Z,101468.95
2022-11-09T17:35:40.276Z,101472.16
2022-11-09T17:38:12.544Z,101466.85
2022-11-09T17:40:44.764Z,101472.23
2022-11-09T17:43:17.594Z,101469.15
2022-11-09T17:45:49.942Z,101472.87
2022-11-09T17:48:22.696Z,101473.77
2022-11-09T17:50:55.768Z,101472.90
2022-11-09T17:53:28.543Z,101474.11
2022-11-09T17:56:01.811Z,101472.48
2022-11-09T17:58:34.147Z,101474.84
2022-11-09T18:01:11.168Z,101471.15
2022-11-09T18:03:43.948Z,101471.16
2022-11-09T18:06:18.242Z,101473.09
2022-11-09T18:09:19.323Z,101465.31
2022-11-09T18:11:44.230Z,101468.13
2022-11-09T18:14:17.273Z,101468.91
2022-11-09T18:16:49.564Z,101466.27
2022-11-09T18:19:21.831Z,101462.27
2022-11-09T18:21:54.170Z,101468.05
2022-11-09T18:24:26.569Z,101469.19
2022-11-09T18:26:59.887Z,101471.70
2022-11-09T18:29:32.338Z,101467.69
2022-11-09T18:32:04.692Z,101468.77
2022-11-09T18:34:36.934Z,101469.83
2022-11-09T18:37:09.210Z,101467.13
2022-11-09T18:39:41.465Z,101470.21
2022-11-09T18:42:14.093Z,101468.11
2022-11-09T18:44:46.414Z,101470.15
2022-11-09T18:47:18.743Z,101473.05
2022-11-09T18:49:51.470Z,101475.94
2022-11-09T18:52:23.838Z,101475.05
2022-11-09T18:54:57.084Z,101478.33
2022-11-09T18:57:29.344Z,101480.77
2022-11-09T19:00:01.637Z,101482.54
2022-11-09T19:02:35.143Z,101483.38
2022-11-09T19:05:09.050Z,101483.52
2022-11-09T19:07:41.260Z,101481.30
2022-11-09T19:10:13.791Z,101481.64
2022-11-09T19:12:45.989Z,101486.04
2022-11-09T19:15:18.353Z,101485.89
2022-11-09T19:17:50.729Z,101489.90
2022-11-09T19:20:23.270Z,101491.20
2022-11-09T19:22:55.572Z,101491.59
2022-11-09T19:25:27.947Z,101488.61
2022-11-09T19:28:00.302Z,101486.14
2022-11-09T19:30:32.635Z,101489.78
2022-11-09T19:33:04.926Z,101487.41
2022-11-09T19:35:37.245Z,101484.83
2022-11-09T19:38:10.263Z,101487.58
2022-11-09T19:40:42.461Z,101487.92
2022-11-09T19:43:14.693Z,101489.82
2022-11-09T19:45:47.040Z,101487.73
2022-11-09T19:48:19.544Z,101491.30
2022-11-09T19:50:53.652Z,101490.33
2022-11-09T19:53:26.895Z,101488.12
2022-11-09T19:56:04.531Z,101491.92
2022-11-09T19:58:37.158Z,101490.51
2022-11-09T20:01:11.917Z,101489.02
2022-11-09T20:03:44.289Z,101494.23
2022-11-09T20:06:16.535Z,101497.21
2022-11-09T20:08:48.850Z,101493.29
2022-11-09T20:11:40.184Z,101495.58
2022-11-09T20:14:13.399Z,101493.27
2022-11-09T20:16:48.556Z,101494.09
2022-11-09T20:19:21.835Z,101490.11
2022-11-09T20:21:54.029Z,101494.42
2022-11-09T20:24:26.316Z,101493.68
2022-11-09T20:26:58.578Z,101491.48
2022-11-09T20:29:30.853Z,101490.31
2022-11-09T20:32:03.255Z,101492.87
2022-11-09T20:34:35.590Z,101489.41
2022-11-09T20:37:08.107Z,101489.02
2022-11-09T20:39:41.626Z,101490.85
2022-11-09T20:42:14.290Z,101489.11
2022-11-09T20:44:46.519Z,101491.98
2022-11-09T20:47:35.459Z,101490.88
2022-11-09T20:50:13.851Z,101487.39
2022-11-09T20:52:46.262Z,101484.03
2022-11-09T20:55:18.522Z,101485.77
2022-11-09T20:57:50.863Z,101479.57
2022-11-09T21:00:24.705Z,101473.21
2022-11-09T21:02:57.059Z,101478.13
2022-11-09T21:05:29.423Z,101477.42
2022-11-09T21:08:01.920Z,101475.13
2022-11-09T21:10:34.166Z,101482.35
2022-11-09T21:13:06.412Z,101480.40
2022-11-09T21:15:38.660Z,101480.06
2022-11-09T21:18:11.450Z,101481.32
2022-11-09T21:20:44.449Z,101480.69
2022-11-09T21:23:34.355Z,101480.90
2022-11-09T21:26:24.428Z,101478.05
2022-11-09T21:29:14.333Z,101481.31
2022-11-09T21:31:46.643Z,101485.55
2022-11-09T21:34:18.914Z,101484.83
2022-11-09T21:36:51.201Z,101482.81
2022-11-09T21:39:23.858Z,101488.59
2022-11-09T21:41:56.123Z,101490.81
2022-11-09T21:44:31.408Z,101492.95
2022-11-09T21:47:04.105Z,101495.65
2022-11-09T21:49:36.330Z,101497.61
2022-11-09T21:52:08.876Z,101498.28
2022-11-09T21:54:41.061Z,101496.04
2022-11-09T21:57:13.440Z,101498.30
2022-11-09T21:59:46.010Z,101500.08
2022-11-09T22:02:18.327Z,101497.61
2022-11-09T22:04:50.589Z,101497.60
2022-11-09T22:07:22.859Z,101500.14
2022-11-09T22:10:11.480Z,101501.40
2022-11-09T22:13:01.415Z,101498.64
2022-11-09T22:15:51.067Z,101497.47
2022-11-09T22:18:37.062Z,101497.50
2022-11-09T22:21:09.443Z,101495.41
2022-11-09T22:23:41.961Z,101497.50
2022-11-09T22:26:14.232Z,101495.13
2022-11-09T22:28:46.990Z,101495.55
2022-11-09T22:31:19.298Z,101500.20
2022-11-09T22:33:51.563Z,101501.03
2022-11-09T22:36:24.505Z,101496.43
2022-11-09T22:38:57.272Z,101496.67
2022-11-09T22:41:29.566Z,101495.89
2022-11-09T22:44:01.931Z,101494.05
2022-11-09T22:46:34.232Z,101494.35
2022-11-09T22:49:06.900Z,101497.95
2022-11-09T22:51:39.699Z,101497.23
2022-11-09T22:54:12.174Z,101493.46
2022-11-09T22:56:44.440Z,101499.17
2022-11-09T22:59:16.774Z,101498.20
2022-11-09T23:01:49.774Z,101494.95
2022-11-09T23:04:22.259Z,101495.35
2022-11-09T23:06:54.565Z,101496.27
2022-11-09T23:09:26.820Z,101496.34
2022-11-09T23:11:59.034Z,101497.70
2022-11-09T23:14:48.818Z,101500.61
2022-11-09T23:17:38.731Z,101495.61
2022-11-09T23:20:13.414Z,101492.21
2022-11-09T23:22:45.896Z,101491.44
2022-11-09T23:25:36.104Z,101492.60
2022-11-09T23:28:08.464Z,101491.70
2022-11-09T23:30:40.990Z,101495.41
2022-11-09T23:33:13.671Z,101492.77
2022-11-09T23:35:46.252Z,101489.96
2022-11-09T23:38:18.454Z,101490.70
2022-11-09T23:40:51.107Z,101494.11
2022-11-09T23:43:23.738Z,101493.52
2022-11-09T23:45:58.302Z,101495.96
2022-11-09T23:48:30.830Z,101492.80
2022-11-09T23:51:04.834Z,101495.30
2022-11-09T23:53:37.814Z,101496.01
2022-11-09T23:56:12.695Z,101500.11
2022-11-09T23:58:47.936Z,101500.18
